Time;durP1;ratioP1;P1;durP2;ratioP2;P2;SDS_P1;SDS_P2;PMS_P1;PMS_P2;Temp;Humidity;BMP_temperature;BMP_pressure;BME280_temperature;BME280_humidity;BME280_pressure;Samples;Min_cycle;Max_cycle;Signal;HPM_P1;HPM_P2
2023/02/18 00:01:33;;;;;;;0.77;0.77;;;;;;;8.29;38.09;95872.84;5049910;28;20266;-65
2023/02/18 00:04:00;;;;;;;0.95;0.95;;;;;;;7.90;38.61;95863.53;5050757;28;20232;-66
2023/02/18 00:06:30;;;;;;;2.17;1.23;;;;;;;7.70;39.38;95846.50;5050159;28;20611;-65
2023/02/18 00:09:00;;;;;;;0.30;0.30;;;;;;;7.67;39.54;95867.78;5050745;28;20227;-64
2023/02/18 00:11:29;;;;;;;11.88;2.83;;;;;;;7.82;39.04;95869.06;5049835;28;20628;-65
2023/02/18 00:13:59;;;;;;;0.73;0.73;;;;;;;7.99;38.69;95866.69;5050986;28;20262;-64
2023/02/18 00:16:26;;;;;;;1.98;1.88;;;;;;;8.19;38.68;95854.25;5049693;28;20231;-65
2023/02/18 00:18:55;;;;;;;4.25;1.67;;;;;;;8.17;38.18;95849.22;5050435;28;20711;-65
2023/02/18 00:21:23;;;;;;;0.52;0.50;;;;;;;8.26;38.17;95841.16;5049574;28;20290;-65
2023/02/18 00:23:50;;;;;;;0.20;0.20;;;;;;;8.48;38.16;95844.91;5050699;28;20199;-65
2023/02/18 00:26:18;;;;;;;1.75;1.23;;;;;;;8.82;37.44;95832.00;5050302;28;20322;-66
2023/02/18 00:28:47;;;;;;;0.85;0.85;;;;;;;8.49;38.02;95826.41;5050660;28;20211;-66
2023/02/18 00:31:18;;;;;;;2.00;1.77;;;;;;;8.59;38.05;95821.47;5050075;28;20200;-65
2023/02/18 00:33:45;;;;;;;1.83;1.65;;;;;;;8.44;37.54;95823.66;5050838;28;20208;-66
2023/02/18 00:36:14;;;;;;;0.95;0.90;;;;;;;8.72;37.36;95815.28;5048227;28;20219;-65
2023/02/18 00:38:55;;;;;;;2.92;2.30;;;;;;;8.87;36.94;95807.81;5050082;28;20267;-65
2023/02/18 00:41:24;;;;;;;0.50;0.45;;;;;;;8.79;37.32;95780.22;5047999;28;20712;-65
2023/02/18 00:43:51;;;;;;;4.70;1.80;;;;;;;8.61;37.47;95803.75;5048600;28;20292;-66
2023/02/18 00:46:19;;;;;;;1.70;1.05;;;;;;;8.76;36.98;95816.41;5048386;28;20212;-66
2023/02/18 00:48:46;;;;;;;1.40;1.30;;;;;;;8.49;38.39;95802.09;5050443;28;20192;-66
2023/02/18 00:51:13;;;;;;;1.35;0.32;;;;;;;8.37;38.07;95804.66;5049654;28;20667;-67
2023/02/18 00:53:40;;;;;;;0.60;0.60;;;;;;;8.43;38.29;95816.81;5050098;28;20637;-66
2023/02/18 00:56:07;;;;;;;0.95;0.95;;;;;;;8.30;38.39;95817.00;5049800;28;20629;-66
2023/02/18 00:58:35;;;;;;;1.35;1.27;;;;;;;7.45;39.84;95819.59;5050654;28;20863;-64
2023/02/18 01:01:05;;;;;;;1.55;0.70;;;;;;;7.74;39.07;95818.94;5048222;28;20666;-64
2023/02/18 01:03:34;;;;;;;0.80;0.60;;;;;;;7.54;39.31;95813.09;5050875;28;20663;-66
2023/02/18 01:06:02;;;;;;;0.65;0.65;;;;;;;7.78;39.23;95820.91;5049829;28;20207;-64
2023/02/18 01:08:29;;;;;;;0.30;0.30;;;;;;;7.72;39.21;95818.38;5049158;28;20203;-69
2023/02/18 01:10:58;;;;;;;0.73;0.65;;;;;;;8.13;38.70;95818.56;5048486;28;20303;-64
2023/02/18 01:13:28;;;;;;;2.28;1.65;;;;;;;8.12;38.51;95816.94;5049194;28;20200;-66
2023/02/18 01:15:55;;;;;;;9.20;2.25;;;;;;;8.09;38.96;95794.72;5050056;28;20624;-65
2023/02/18 01:18:23;;;;;;;0.10;0.10;;;;;;;7.63;39.46;95809.22;5052764;28;20261;-63
2023/02/18 01:20:51;;;;;;;0.75;0.73;;;;;;;6.79;41.64;95827.06;5050573;28;20200;-64
2023/02/18 01:23:19;;;;;;;0.57;0.55;;;;;;;7.17;40.19;95826.03;5050367;28;20197;-64
2023/02/18 01:25:48;;;;;;;0.28;0.28;;;;;;;6.95;40.38;95810.97;5055404;28;20206;-63
2023/02/18 01:28:15;;;;;;;0.32;0.32;;;;;;;7.19;40.30;95810.16;5055275;28;20204;-65
2023/02/18 01:30:42;;;;;;;0.63;0.63;;;;;;;7.32;40.57;95817.91;5055010;28;20207;-64
2023/02/18 01:33:09;;;;;;;1.25;0.70;;;;;;;7.13;40.93;95806.59;5053211;28;20192;-65
2023/02/18 01:35:40;;;;;;;1.45;1.02;;;;;;;7.22;40.33;95810.53;5049328;28;20204;-66
2023/02/18 01:38:08;;;;;;;0.13;0.13;;;;;;;7.15;40.98;95796.78;5049672;28;20201;-64
2023/02/18 01:40:35;;;;;;;0.55;0.55;;;;;;;6.60;41.78;95815.78;5047766;28;20199;-64
2023/02/18 01:43:02;;;;;;;0.15;0.15;;;;;;;6.64;41.38;95814.31;5048116;28;20226;-64
2023/02/18 01:45:32;;;;;;;0.47;0.47;;;;;;;6.95;40.91;95811.75;5047091;28;20196;-65
2023/02/18 01:48:04;;;;;;;1.05;0.95;;;;;;;6.99;40.64;95817.31;5050200;28;20199;-67
2023/02/18 01:50:33;;;;;;;2.65;2.20;;;;;;;6.57;42.30;95823.97;5049638;28;20219;-65
2023/02/18 01:53:01;;;;;;;0.47;0.47;;;;;;;7.22;40.68;95832.44;5054794;28;20196;-66
2023/02/18 01:55:30;;;;;;;0.52;0.52;;;;;;;7.40;40.29;95835.09;5054892;28;20206;-65
2023/02/18 01:57:57;;;;;;;0.88;0.82;;;;;;;7.27;39.75;95835.19;5052802;28;20211;-65
2023/02/18 02:00:24;;;;;;;0.50;0.50;;;;;;;7.36;39.94;95826.91;5053135;28;20197;-65
2023/02/18 02:02:52;;;;;;;1.90;1.42;;;;;;;7.32;40.02;95833.53;5053949;28;20224;-64
2023/02/18 02:05:20;;;;;;;1.77;1.63;;;;;;;7.33;39.98;95839.56;5054564;28;20644;-64
2023/02/18 02:07:51;;;;;;;0.75;0.75;;;;;;;6.99;40.71;95818.13;5050184;28;20254;-64
2023/02/18 02:10:18;;;;;;;0.90;0.90;;;;;;;6.70;41.70;95817.91;5050735;28;20238;-64
2023/02/18 02:13:04;;;;;;;1.05;1.00;;;;;;;7.11;40.54;95810.44;5050950;28;20303;-65
2023/02/18 02:15:47;;;;;;;2.50;1.75;;;;;;;6.64;41.21;95814.31;5050719;28;20201;-64
2023/02/18 02:18:35;;;;;;;5.47;1.95;;;;;;;6.43;42.54;95814.63;5053970;28;20319;-64
2023/02/18 02:21:06;;;;;;;4.78;1.80;;;;;;;6.03;43.30;95826.19;5047675;28;20196;-65
2023/02/18 02:24:13;;;;;;;0.40;0.40;;;;;;;6.70;41.45;95823.91;5052458;28;20196;-66
2023/02/18 02:27:06;;;;;;;0.22;0.22;;;;;;;7.17;40.51;95820.81;5058847;28;20200;-64
2023/02/18 02:29:45;;;;;;;0.00;0.00;;;;;;;7.33;40.02;95819.50;5054883;28;20216;-65
2023/02/18 02:32:30;;;;;;;1.80;1.08;;;;;;;7.57;40.30;95820.53;5055695;28;20200;-64
2023/02/18 02:34:57;;;;;;;0.17;0.17;;;;;;;7.30;40.65;95806.88;5054573;28;20212;-64
2023/02/18 02:37:30;;;;;;;3.03;1.20;;;;;;;7.22;40.88;95806.34;5050859;28;20376;-64
2023/02/18 02:40:06;;;;;;;0.10;0.10;;;;;;;7.22;40.43;95811.56;5052912;28;20219;-65
2023/02/18 02:43:05;;;;;;;0.32;0.32;;;;;;;6.64;42.34;95813.56;5051163;28;20216;-66
2023/02/18 02:45:32;;;;;;;0.10;0.10;;;;;;;6.61;41.99;95804.34;5050838;28;20201;-65
2023/02/18 02:48:22;;;;;;;0.13;0.13;;;;;;;6.78;41.45;95800.25;5052174;28;20200;-66
2023/02/18 02:51:00;;;;;;;4.47;2.72;;;;;;;6.98;41.15;95793.09;5039361;28;20335;-64
2023/02/18 02:53:32;;;;;;;0.20;0.20;;;;;;;6.90;41.18;95793.34;5050022;28;20204;-65
2023/02/18 02:55:59;;;;;;;0.60;0.60;;;;;;;7.06;41.11;95797.25;5050458;28;20304;-65
2023/02/18 02:58:27;;;;;;;4.57;1.00;;;;;;;7.27;40.31;95814.34;5050604;28;20208;-65
2023/02/18 03:01:15;;;;;;;0.63;0.63;;;;;;;7.19;40.70;95813.59;5049865;28;20201;-65
2023/02/18 03:03:57;;;;;;;0.00;0.00;;;;;;;7.26;40.96;95823.97;5050828;28;20287;-65
2023/02/18 03:06:36;;;;;;;0.60;0.60;;;;;;;7.41;40.60;95821.06;5051271;28;20612;-65
2023/02/18 03:09:15;;;;;;;1.10;1.08;;;;;;;7.52;39.58;95813.31;5050513;28;20275;-64
2023/02/18 03:12:22;;;;;;;0.80;0.80;;;;;;;7.51;39.85;95808.31;5050232;28;20200;-64
2023/02/18 03:15:00;;;;;;;1.58;1.48;;;;;;;7.39;40.46;95800.41;5051371;28;20204;-64
2023/02/18 03:17:45;;;;;;;0.00;0.00;;;;;;;7.21;40.44;95789.91;5049903;28;20200;-65
2023/02/18 03:20:19;;;;;;;1.52;1.45;;;;;;;7.33;40.54;95808.28;5049664;28;20200;-65
2023/02/18 03:22:49;;;;;;;0.73;0.73;;;;;;;7.01;41.09;95810.91;5051423;28;20578;-65
2023/02/18 03:25:17;;;;;;;0.20;0.20;;;;;;;7.02;40.68;95825.56;5049708;28;20192;-65
2023/02/18 03:28:14;;;;;;;1.05;1.00;;;;;;;7.01;41.42;95838.75;5051427;28;20185;-65
2023/02/18 03:30:46;;;;;;;7.68;3.08;;;;;;;6.98;40.90;95842.63;5052656;28;20894;-66
2023/02/18 03:33:19;;;;;;;0.50;0.50;;;;;;;7.11;40.77;95847.75;5049344;28;20215;-66
2023/02/18 03:35:48;;;;;;;3.05;2.40;;;;;;;6.91;41.17;95859.28;5050230;28;20308;-65
2023/02/18 03:38:23;;;;;;;3.47;2.90;;;;;;;6.68;41.27;95851.97;5050054;28;20207;-66
2023/02/18 03:40:51;;;;;;;2.63;2.28;;;;;;;6.62;41.87;95852.81;5051143;28;20200;-66
2023/02/18 03:43:18;;;;;;;0.80;0.80;;;;;;;6.65;41.85;95868.03;5049525;28;20224;-66
2023/02/18 03:45:45;;;;;;;0.63;0.63;;;;;;;6.64;41.84;95863.03;5049370;28;20227;-65
2023/02/18 03:48:11;;;;;;;0.40;0.40;;;;;;;6.56;42.10;95864.06;5050945;28;20224;-66
2023/02/18 03:50:38;;;;;;;1.80;1.55;;;;;;;6.57;41.55;95860.44;5050973;28;20273;-66
2023/02/18 03:53:05;;;;;;;3.25;2.25;;;;;;;6.28;42.32;95876.56;5055677;28;20753;-66
2023/02/18 03:55:32;;;;;;;2.13;2.03;;;;;;;6.20;42.65;95869.00;5056195;28;20570;-64
2023/02/18 03:57:59;;;;;;;1.75;1.00;;;;;;;5.56;43.35;95866.25;5050565;28;20192;-65
2023/02/18 04:00:25;;;;;;;2.92;2.50;;;;;;;5.59;43.55;95871.03;5050709;28;20292;-65
2023/02/18 04:02:52;;;;;;;0.85;0.85;;;;;;;5.54;44.02;95870.03;5051004;28;20327;-67
2023/02/18 04:05:19;;;;;;;1.20;1.08;;;;;;;5.47;44.29;95862.25;5050613;28;20303;-65
2023/02/18 04:07:46;;;;;;;3.38;0.90;;;;;;;5.60;44.13;95861.44;5050386;28;20629;-66
2023/02/18 04:10:13;;;;;;;0.93;0.93;;;;;;;5.88;43.59;95860.25;5050842;28;20279;-66
2023/02/18 04:12:40;;;;;;;4.35;3.95;;;;;;;5.89;43.86;95855.84;5049972;28;20203;-65
2023/02/18 04:15:07;;;;;;;0.45;0.45;;;;;;;6.27;42.98;95859.34;5049163;28;20228;-65
2023/02/18 04:17:34;;;;;;;0.80;0.75;;;;;;;6.44;41.76;95833.66;5050694;28;20325;-67
2023/02/18 04:20:02;;;;;;;0.43;0.43;;;;;;;6.66;41.67;95842.78;5050400;28;20722;-66
2023/02/18 04:22:29;;;;;;;0.85;0.85;;;;;;;6.50;42.21;95844.03;5050633;28;20718;-65
2023/02/18 04:24:56;;;;;;;0.77;0.77;;;;;;;6.41;42.17;95840.06;5050683;28;20205;-65
2023/02/18 04:27:24;;;;;;;1.70;1.58;;;;;;;6.49;42.16;95837.25;5049895;28;20232;-66
2023/02/18 04:29:51;;;;;;;0.40;0.40;;;;;;;6.47;42.31;95828.84;5050479;28;20200;-66
2023/02/18 04:32:18;;;;;;;2.30;2.15;;;;;;;6.48;42.03;95835.63;5049528;28;20235;-66
2023/02/18 04:34:45;;;;;;;0.60;0.60;;;;;;;6.46;42.02;95826.47;5049917;28;20729;-66
2023/02/18 04:37:11;;;;;;;2.38;2.17;;;;;;;6.52;41.95;95823.81;5049994;28;20222;-66
2023/02/18 04:39:38;;;;;;;0.70;0.65;;;;;;;6.38;41.28;95806.66;5050040;28;20695;-65
2023/02/18 04:42:07;;;;;;;0.05;0.05;;;;;;;6.81;41.66;95833.69;5048977;28;20220;-66
2023/02/18 04:44:36;;;;;;;0.52;0.52;;;;;;;6.62;41.95;95836.41;5049728;28;20188;-65
2023/02/18 04:47:04;;;;;;;0.93;0.93;;;;;;;6.54;41.50;95840.03;5049739;28;20681;-65
2023/02/18 04:49:31;;;;;;;2.80;2.55;;;;;;;6.43;41.77;95843.28;5050295;28;20204;-68
2023/02/18 04:51:58;;;;;;;1.15;0.88;;;;;;;6.56;41.96;95843.22;5049258;28;20265;-63
2023/02/18 04:54:25;;;;;;;0.70;0.70;;;;;;;6.71;41.88;95835.94;5049833;28;20610;-63
2023/02/18 04:56:52;;;;;;;1.23;1.05;;;;;;;6.68;41.56;95846.75;5050501;28;20568;-62
2023/02/18 04:59:18;;;;;;;1.38;1.25;;;;;;;6.63;41.96;95849.19;5049719;28;20287;-64
2023/02/18 05:01:45;;;;;;;2.90;2.08;;;;;;;6.71;41.51;95851.56;5049229;28;20656;-63
2023/02/18 05:04:12;;;;;;;2.78;2.00;;;;;;;6.78;41.10;95847.13;5049577;28;20192;-63
2023/02/18 05:06:39;;;;;;;0.15;0.15;;;;;;;6.60;41.73;95860.03;5049469;28;20203;-63
2023/02/18 05:09:06;;;;;;;10.10;2.13;;;;;;;6.79;41.67;95864.34;5049328;28;20246;-65
2023/02/18 05:11:32;;;;;;;0.73;0.73;;;;;;;6.63;42.18;95851.81;5049742;28;20254;-65
2023/02/18 05:13:59;;;;;;;2.35;2.17;;;;;;;6.66;41.88;95838.34;5049535;28;20295;-64
2023/02/18 05:16:26;;;;;;;1.40;1.30;;;;;;;6.37;43.07;95833.69;5049356;28;20192;-63
2023/02/18 05:18:53;;;;;;;1.65;1.55;;;;;;;5.92;44.12;95850.22;5068941;28;20607;-63
2023/02/18 05:21:20;;;;;;;1.10;1.10;;;;;;;5.86;43.53;95851.03;5054492;28;20722;-65
2023/02/18 05:23:47;;;;;;;2.15;0.88;;;;;;;5.80;44.04;95838.81;5047947;28;20239;-63
2023/02/18 05:26:16;;;;;;;1.10;1.02;;;;;;;5.87;43.79;95837.03;5048619;28;20204;-64
2023/02/18 05:28:42;;;;;;;1.75;1.55;;;;;;;5.81;43.96;95837.81;5051164;28;20216;-63
2023/02/18 05:31:09;;;;;;;0.90;0.85;;;;;;;5.97;43.62;95842.59;5063282;28;20254;-63
2023/02/18 05:33:36;;;;;;;1.85;1.23;;;;;;;6.34;42.92;95839.31;5049557;28;20607;-64
2023/02/18 05:36:04;;;;;;;0.73;0.57;;;;;;;6.84;41.92;95841.06;5049920;28;20284;-64
2023/02/18 05:38:31;;;;;;;0.38;0.38;;;;;;;6.89;41.79;95838.66;5049566;28;20201;-63
2023/02/18 05:40:58;;;;;;;0.10;0.10;;;;;;;6.88;41.96;95850.06;5061880;28;20200;-67
2023/02/18 05:43:25;;;;;;;0.45;0.45;;;;;;;6.72;42.37;95847.94;5048781;28;20311;-66
2023/02/18 05:45:52;;;;;;;0.45;0.45;;;;;;;6.87;41.79;95835.47;5048822;28;20227;-64
2023/02/18 05:48:19;;;;;;;1.73;1.38;;;;;;;7.00;41.51;95848.41;5049325;28;20212;-63
2023/02/18 05:50:46;;;;;;;0.90;0.73;;;;;;;7.00;41.70;95835.38;5048670;28;20193;-64
2023/02/18 05:53:12;;;;;;;0.00;0.00;;;;;;;7.18;41.81;95845.88;5048934;28;20189;-64
2023/02/18 05:55:41;;;;;;;2.00;1.30;;;;;;;7.26;41.63;95854.47;5048034;28;20208;-64
2023/02/18 05:58:08;;;;;;;0.50;0.50;;;;;;;7.31;41.02;95868.47;5048491;28;20232;-63
2023/02/18 06:00:35;;;;;;;1.45;1.35;;;;;;;7.31;41.15;95836.38;5046401;28;20196;-64
2023/02/18 06:03:02;;;;;;;2.60;1.83;;;;;;;7.30;40.74;95866.06;5046651;28;20274;-64
2023/02/18 06:05:29;;;;;;;2.10;1.67;;;;;;;6.89;42.37;95854.28;5047171;28;20594;-64
2023/02/18 06:07:55;;;;;;;3.67;1.95;;;;;;;6.79;41.98;95864.34;5047145;28;20220;-64
2023/02/18 06:10:22;;;;;;;1.45;1.13;;;;;;;6.42;43.52;95862.53;5046390;28;20580;-64
2023/02/18 06:12:49;;;;;;;2.28;2.10;;;;;;;6.87;42.18;95858.91;5047758;28;20196;-64
2023/02/18 06:15:16;;;;;;;11.68;1.38;;;;;;;7.04;41.49;95844.34;5049085;28;20263;-63
2023/02/18 06:17:43;;;;;;;0.47;0.47;;;;;;;7.34;41.69;95859.41;5049775;28;20193;-64
2023/02/18 06:20:10;;;;;;;0.35;0.35;;;;;;;7.39;41.71;95849.16;5049186;28;20192;-65
2023/02/18 06:22:37;;;;;;;1.85;1.17;;;;;;;6.85;42.20;95821.84;5048174;28;20322;-63
2023/02/18 06:25:05;;;;;;;1.58;0.90;;;;;;;6.94;42.31;95841.44;5049008;28;20635;-64
2023/02/18 06:27:32;;;;;;;0.57;0.57;;;;;;;6.79;42.33;95851.31;5049692;28;20204;-63
2023/02/18 06:29:59;;;;;;;1.10;1.08;;;;;;;6.96;42.10;95854.25;5049878;28;20204;-63
2023/02/18 06:32:26;;;;;;;0.52;0.52;;;;;;;6.91;42.47;95852.28;5048368;28;20613;-64
2023/02/18 06:34:53;;;;;;;0.65;0.30;;;;;;;6.65;42.86;95852.41;5049387;28;20964;-63
2023/02/18 06:37:19;;;;;;;1.55;0.70;;;;;;;7.26;41.78;95839.63;5049051;28;20595;-63
2023/02/18 06:39:46;;;;;;;0.85;0.85;;;;;;;7.31;42.31;95846.78;5048051;28;20204;-63
2023/02/18 06:42:13;;;;;;;1.25;1.10;;;;;;;7.87;41.23;95853.56;5044270;28;20191;-64
2023/02/18 06:44:40;;;;;;;1.77;1.10;;;;;;;7.95;41.22;95844.66;5045808;28;20196;-63
2023/02/18 06:47:07;;;;;;;0.55;0.55;;;;;;;8.20;41.43;95842.78;5046241;28;20184;-65
2023/02/18 06:49:35;;;;;;;0.45;0.45;;;;;;;8.16;42.77;95841.63;5046448;28;20589;-64
2023/02/18 06:52:02;;;;;;;0.20;0.20;;;;;;;8.34;41.28;95833.81;5046369;28;20600;-63
2023/02/18 06:54:28;;;;;;;0.17;0.17;;;;;;;8.60;42.08;95837.91;5047089;28;20215;-63
2023/02/18 06:56:55;;;;;;;1.65;1.55;;;;;;;8.60;41.32;95825.66;5048430;28;20192;-64
2023/02/18 06:59:22;;;;;;;1.45;0.63;;;;;;;8.63;41.10;95837.50;5048934;28;20295;-64
2023/02/18 07:01:49;;;;;;;0.25;0.25;;;;;;;8.69;41.46;95845.25;5048413;28;20205;-64
2023/02/18 07:04:16;;;;;;;3.53;2.88;;;;;;;8.69;40.92;95842.63;5048596;28;20220;-66
2023/02/18 07:06:43;;;;;;;20.33;3.10;;;;;;;8.82;40.59;95837.25;5047728;28;20275;-64
2023/02/18 07:09:10;;;;;;;0.70;0.70;;;;;;;8.93;40.71;95833.88;5051095;28;20200;-65
2023/02/18 07:11:37;;;;;;;0.60;0.60;;;;;;;8.98;40.66;95841.84;5052392;28;20231;-66
2023/02/18 07:14:03;;;;;;;1.10;0.90;;;;;;;9.10;39.97;95837.44;5052431;28;20287;-65
2023/02/18 07:16:33;;;;;;;0.95;0.82;;;;;;;9.06;40.21;95818.00;5051965;28;20810;-64
2023/02/18 07:19:00;;;;;;;2.45;2.05;;;;;;;9.08;41.92;95820.41;5051818;28;20789;-65
2023/02/18 07:21:28;;;;;;;0.30;0.30;;;;;;;9.37;40.22;95830.03;5051863;28;20276;-66
2023/02/18 07:23:55;;;;;;;1.00;1.00;;;;;;;9.46;39.53;95823.44;5052031;28;20230;-65
2023/02/18 07:26:21;;;;;;;0.82;0.82;;;;;;;9.44;39.00;95814.22;5051357;28;20624;-65
2023/02/18 07:28:48;;;;;;;3.28;2.38;;;;;;;9.55;38.63;95819.47;5052255;28;20577;-64
2023/02/18 07:31:16;;;;;;;0.10;0.10;;;;;;;9.58;38.65;95826.09;5051291;28;20201;-64
2023/02/18 07:33:43;;;;;;;2.95;1.77;;;;;;;9.75;38.17;95832.22;5052063;28;20292;-64
2023/02/18 07:36:10;;;;;;;6.63;1.80;;;;;;;9.74;38.44;95822.78;5052247;28;20608;-66
2023/02/18 07:38:37;;;;;;;1.60;1.52;;;;;;;9.75;38.34;95832.22;5052736;28;20486;-65
2023/02/18 07:41:04;;;;;;;1.90;1.42;;;;;;;9.80;38.15;95845.41;5051450;28;20644;-65
2023/02/18 07:43:31;;;;;;;1.02;0.98;;;;;;;9.83;37.82;95844.97;5051850;28;20224;-65
2023/02/18 07:45:58;;;;;;;2.40;2.20;;;;;;;9.91;38.24;95836.75;5050504;28;20222;-65
2023/02/18 07:48:25;;;;;;;2.55;2.35;;;;;;;9.82;37.90;95844.19;5052061;28;20203;-65
2023/02/18 07:50:51;;;;;;;0.60;0.60;;;;;;;9.94;37.70;95831.09;5051844;28;20189;-65
2023/02/18 07:53:19;;;;;;;0.60;0.60;;;;;;;9.99;37.57;95839.06;5052808;28;20201;-65
2023/02/18 07:55:49;;;;;;;1.70;0.40;;;;;;;9.72;38.14;95835.28;5051709;28;20489;-65
2023/02/18 07:58:21;;;;;;;1.30;1.20;;;;;;;9.46;37.64;95843.56;5052987;28;20538;-63
2023/02/18 08:00:49;;;;;;;5.20;0.80;;;;;;;9.13;38.98;95841.44;5056949;28;20205;-64
2023/02/18 08:03:17;;;;;;;4.65;2.58;;;;;;;9.52;38.47;95827.78;5056154;28;20226;-65
2023/02/18 08:05:44;;;;;;;0.68;0.68;;;;;;;10.15;37.33;95841.00;5052770;28;20199;-66
2023/02/18 08:08:13;;;;;;;1.02;0.98;;;;;;;10.46;36.92;95840.63;5050774;28;20220;-65
2023/02/18 08:10:40;;;;;;;0.75;0.75;;;;;;;10.58;36.49;95838.78;5050869;28;20228;-64
2023/02/18 08:13:09;;;;;;;1.57;1.47;;;;;;;11.01;36.66;95831.22;5051831;28;20275;-63
2023/02/18 08:15:36;;;;;;;4.13;1.27;;;;;;;11.16;34.61;95821.00;5050807;28;20447;-65
2023/02/18 08:18:03;;;;;;;0.60;0.60;;;;;;;10.85;35.45;95828.53;5048568;28;20232;-63
2023/02/18 08:20:30;;;;;;;1.67;1.20;;;;;;;10.65;35.75;95808.00;5048429;28;20463;-67
2023/02/18 08:22:57;;;;;;;2.03;1.30;;;;;;;10.45;35.23;95818.06;5049648;28;20501;-66
2023/02/18 08:25:24;;;;;;;1.43;1.20;;;;;;;11.08;34.83;95812.69;5049361;28;20548;-67
2023/02/18 08:27:55;;;;;;;0.20;0.20;;;;;;;11.87;34.71;95822.16;5050335;28;20435;-68
2023/02/18 08:30:22;;;;;;;1.07;1.07;;;;;;;11.89;33.88;95820.09;5050827;28;20546;-66
2023/02/18 08:32:49;;;;;;;0.70;0.63;;;;;;;11.21;34.26;95813.22;5063785;28;20473;-67
2023/02/18 08:35:16;;;;;;;0.43;0.43;;;;;;;11.88;34.20;95823.72;5060619;28;20505;-67
2023/02/18 08:37:43;;;;;;;6.03;2.73;;;;;;;11.95;34.03;95808.63;5051845;28;20466;-69
2023/02/18 08:40:20;;;;;;;0.50;0.50;;;;;;;12.07;33.39;95801.44;5050638;28;20450;-67
2023/02/18 08:42:46;;;;;;;1.23;1.10;;;;;;;12.23;33.25;95792.72;5050567;28;20434;-71
2023/02/18 08:45:13;;;;;;;0.30;0.30;;;;;;;12.28;33.41;95792.00;5049126;28;20451;-71
2023/02/18 08:47:40;;;;;;;2.10;1.90;;;;;;;12.46;32.89;95803.00;5050055;28;20446;-68
2023/02/18 08:50:27;;;;;;;0.93;0.87;;;;;;;12.15;33.34;95799.16;5050304;28;20479;-70
2023/02/18 08:52:55;;;;;;;1.60;1.50;;;;;;;12.61;33.06;95808.41;5050233;28;20454;-70
2023/02/18 08:55:22;;;;;;;2.07;1.87;;;;;;;12.68;32.89;95808.25;5050077;28;20828;-68
2023/02/18 08:57:49;;;;;;;1.17;1.07;;;;;;;12.55;33.57;95788.38;5051057;28;20533;-67
2023/02/18 09:00:17;;;;;;;0.20;0.20;;;;;;;12.83;33.00;95790.78;5049747;28;20522;-63
2023/02/18 09:02:43;;;;;;;0.60;0.60;;;;;;;12.88;33.20;95796.09;5050263;28;20453;-65
2023/02/18 09:05:11;;;;;;;2.47;2.23;;;;;;;12.83;32.82;95790.78;5050100;28;20475;-65
2023/02/18 09:07:38;;;;;;;3.03;2.73;;;;;;;12.85;32.55;95796.59;5049903;28;20439;-69
2023/02/18 09:10:06;;;;;;;0.30;0.30;;;;;;;13.02;32.56;95789.44;5049903;28;20447;-70
2023/02/18 09:12:33;;;;;;;0.57;0.57;;;;;;;12.89;32.07;95794.28;5049839;28;21024;-68
2023/02/18 09:15:03;;;;;;;2.73;1.10;;;;;;;12.98;31.98;95801.47;5049812;28;21090;-65
2023/02/18 09:17:30;;;;;;;6.93;3.23;;;;;;;13.01;31.46;95793.06;5049755;28;20443;-67
2023/02/18 09:19:57;;;;;;;1.67;1.53;;;;;;;12.52;32.10;95803.88;5049656;28;21015;-67
2023/02/18 09:22:24;;;;;;;0.53;0.53;;;;;;;12.77;32.18;95807.56;5049638;28;20447;-66
2023/02/18 09:24:52;;;;;;;0.77;0.70;;;;;;;12.75;32.46;95796.50;5049561;28;21118;-69
2023/02/18 09:27:18;;;;;;;2.10;1.87;;;;;;;12.52;31.99;95778.34;5049291;28;20882;-68
2023/02/18 09:29:45;;;;;;;1.47;1.27;;;;;;;13.32;31.26;95794.19;5049788;28;21258;-68
2023/02/18 09:32:12;;;;;;;0.63;0.63;;;;;;;13.01;31.54;95782.56;5049053;28;20477;-68
2023/02/18 09:34:52;;;;;;;1.67;1.57;;;;;;;13.37;33.09;95769.75;5049814;28;20439;-66
2023/02/18 09:37:19;;;;;;;5.20;4.20;;;;;;;13.87;30.78;95770.91;5048805;28;20439;-61
2023/02/18 09:39:47;;;;;;;1.97;1.87;;;;;;;14.61;31.27;95773.41;5049914;28;20478;-67
2023/02/18 09:42:19;;;;;;;1.83;1.73;;;;;;;14.65;30.38;95762.06;5048811;28;20455;-67
2023/02/18 09:44:51;;;;;;;1.23;0.57;;;;;;;14.41;30.04;95771.50;5049581;28;20490;-67
2023/02/18 09:47:36;;;;;;;0.50;0.50;;;;;;;15.10;29.55;95764.81;5049408;28;21053;-69
2023/02/18 09:50:10;;;;;;;0.63;0.63;;;;;;;15.37;29.54;95769.84;5050096;28;20457;-70
2023/02/18 09:52:38;;;;;;;5.57;1.70;;;;;;;15.34;29.17;95769.59;5049538;28;21282;-66
2023/02/18 09:55:26;;;;;;;1.07;1.07;;;;;;;15.61;30.32;95780.72;5049280;28;20435;-67
2023/02/18 09:58:01;;;;;;;1.07;1.07;;;;;;;15.39;30.60;95772.22;5049214;28;20439;-67
2023/02/18 10:00:35;;;;;;;2.27;1.93;;;;;;;15.37;30.18;95769.06;5049122;28;21017;-66
2023/02/18 10:03:16;;;;;;;0.90;0.50;;;;;;;14.79;28.49;95765.03;5049433;28;20462;-66
2023/02/18 10:06:01;;;;;;;2.60;2.33;;;;;;;15.32;29.74;95759.28;5049590;28;20451;-70
2023/02/18 10:08:46;;;;;;;2.90;2.07;;;;;;;15.83;29.20;95752.97;5049539;28;20494;-68
2023/02/18 10:11:28;;;;;;;2.07;1.97;;;;;;;15.90;28.01;95742.91;5048518;28;20899;-65
2023/02/18 10:13:59;;;;;;;0.40;0.40;;;;;;;16.72;27.82;95734.41;5051074;28;20454;-69
2023/02/18 10:16:27;;;;;;;1.40;1.30;;;;;;;16.91;27.73;95722.16;5048878;28;20474;-74
2023/02/18 10:18:57;;;;;;;0.50;0.50;;;;;;;17.29;27.37;95727.69;5048262;28;20486;-68
2023/02/18 10:21:29;;;;;;;1.23;1.03;;;;;;;17.65;27.18;95726.34;5047832;28;20455;-69
2023/02/18 10:24:29;;;;;;;1.70;1.50;;;;;;;17.48;26.39;95726.00;5054880;28;20470;-71
2023/02/18 10:29:41;;;;;;;1.00;1.00;;;;;;;17.97;26.30;95723.94;5056802;28;20453;-69
2023/02/18 10:32:36;;;;;;;0.70;0.70;;;;;;;18.03;26.34;95712.97;5049211;28;20478;-67
2023/02/18 10:35:22;;;;;;;0.73;0.73;;;;;;;17.72;26.28;95717.00;5049949;28;20501;-73
2023/02/18 10:38:13;;;;;;;0.97;0.97;;;;;;;18.01;25.74;95709.06;5046808;28;20451;-72
2023/02/18 10:40:59;;;;;;;2.13;1.20;;;;;;;18.24;25.58;95705.59;5047279;28;20458;-69
2023/02/18 10:43:26;;;;;;;1.93;1.67;;;;;;;18.40;24.99;95688.41;5050125;28;20443;-68
2023/02/18 10:46:10;;;;;;;2.10;1.23;;;;;;;18.34;24.44;95686.13;5051653;28;20493;-67
2023/02/18 10:48:50;;;;;;;0.97;0.97;;;;;;;18.21;24.34;95682.28;5051337;28;20439;-72
2023/02/18 10:51:24;;;;;;;0.57;0.57;;;;;;;18.03;25.13;95664.44;5051593;28;20443;-68
2023/02/18 10:53:52;;;;;;;3.53;1.47;;;;;;;18.08;24.79;95664.41;5052472;28;20940;-73
2023/02/18 10:57:03;;;;;;;0.83;0.70;;;;;;;18.70;23.78;95674.75;5052263;28;20542;-67
2023/02/18 10:59:32;;;;;;;2.27;1.87;;;;;;;19.15;24.37;95665.34;5065455;28;20447;-71
2023/02/18 11:02:02;;;;;;;1.60;1.43;;;;;;;19.54;24.62;95671.09;5049249;28;20447;-70
2023/02/18 11:04:41;;;;;;;18.17;2.00;;;;;;;18.46;24.16;95644.84;5050910;28;20588;-68
2023/02/18 11:07:15;;;;;;;0.93;0.93;;;;;;;18.27;24.25;95659.91;5048476;28;20434;-71
2023/02/18 11:09:46;;;;;;;4.53;1.67;;;;;;;17.76;24.27;95661.56;5050739;28;20538;-71
2023/02/18 11:12:19;;;;;;;1.33;1.23;;;;;;;18.02;24.50;95631.84;5048437;28;20461;-71
2023/02/18 11:14:49;;;;;;;0.97;0.83;;;;;;;18.69;24.84;95640.53;5050704;28;20458;-70
2023/02/18 11:17:25;;;;;;;0.90;0.87;;;;;;;18.95;23.58;95628.47;5050981;28;20447;-68
2023/02/18 11:19:57;;;;;;;1.17;1.17;;;;;;;19.06;22.73;95624.56;5050686;28;20522;-70
2023/02/18 11:22:31;;;;;;;2.67;1.20;;;;;;;19.08;22.42;95617.91;5050851;28;20439;-72
2023/02/18 11:25:01;;;;;;;1.47;0.70;;;;;;;18.96;22.37;95620.19;5061578;28;20481;-68
2023/02/18 11:27:41;;;;;;;1.10;1.00;;;;;;;19.30;22.93;95603.19;5052040;28;20849;-70
2023/02/18 11:30:24;;;;;;;2.30;1.50;;;;;;;18.97;22.25;95605.84;5061078;28;20525;-66
2023/02/18 11:33:06;;;;;;;1.13;0.70;;;;;;;18.54;21.92;95608.91;5052303;28;20497;-71
2023/02/18 11:35:34;;;;;;;0.90;0.90;;;;;;;18.21;22.23;95602.69;5063153;28;20446;-69
2023/02/18 11:38:03;;;;;;;0.10;0.10;;;;;;;18.55;21.90;95603.31;5052879;28;20446;-70
2023/02/18 11:40:34;;;;;;;0.60;0.60;;;;;;;18.54;22.14;95575.19;5064024;28;20462;-71
2023/02/18 11:43:21;;;;;;;4.13;1.13;;;;;;;18.97;22.29;95589.91;5062224;28;20452;-68
2023/02/18 11:46:17;;;;;;;0.07;0.07;;;;;;;18.90;21.97;95578.09;5068680;28;21015;-69
2023/02/18 11:48:45;;;;;;;0.43;0.43;;;;;;;18.83;22.43;95583.00;5053928;28;20497;-70
2023/02/18 11:51:27;;;;;;;0.57;0.57;;;;;;;18.78;22.06;95581.19;5057004;28;20994;-68
2023/02/18 11:54:03;;;;;;;0.40;0.40;;;;;;;19.04;22.70;95569.09;5050051;28;20534;-72
2023/02/18 11:56:35;;;;;;;0.70;0.70;;;;;;;19.31;22.31;95562.22;5054112;28;20443;-66
2023/02/18 11:59:03;;;;;;;0.10;0.10;;;;;;;19.60;22.54;95557.44;5050841;28;20948;-69